sensor_id;sensor_type;location;lat;lon;timestamp;P1;durP1;ratioP1;P2;durP2;ratioP2
27495;SDS011;14929;51.336;9.416;2023-06-10T00:02:06;3.42;;;3.13;;
27495;SDS011;14929;51.336;9.416;2023-06-10T00:04:33;3.42;;;2.95;;
27495;SDS011;14929;51.336;9.416;2023-06-10T00:07:02;2.85;;;2.65;;
27495;SDS011;14929;51.336;9.416;2023-06-10T00:09:33;3.30;;;3.00;;
27495;SDS011;14929;51.336;9.416;2023-06-10T00:12:01;3.00;;;2.80;;
27495;SDS011;14929;51.336;9.416;2023-06-10T00:14:30;2.40;;;2.30;;
27495;SDS011;14929;51.336;9.416;2023-06-10T00:16:58;2.88;;;2.53;;
27495;SDS011;14929;51.336;9.416;2023-06-10T00:19:26;2.90;;;2.60;;
27495;SDS011;14929;51.336;9.416;2023-06-10T00:21:55;3.15;;;2.90;;
27495;SDS011;14929;51.336;9.416;2023-06-10T00:24:23;2.90;;;2.70;;
27495;SDS011;14929;51.336;9.416;2023-06-10T00:26:50;2.85;;;2.65;;
27495;SDS011;14929;51.336;9.416;2023-06-10T00:29:18;3.03;;;2.83;;
27495;SDS011;14929;51.336;9.416;2023-06-10T00:31:46;3.88;;;3.58;;
27495;SDS011;14929;51.336;9.416;2023-06-10T00:34:14;2.97;;;2.78;;
27495;SDS011;14929;51.336;9.416;2023-06-10T00:36:42;2.85;;;2.65;;
27495;SDS011;14929;51.336;9.416;2023-06-10T00:39:09;3.58;;;2.72;;
27495;SDS011;14929;51.336;9.416;2023-06-10T00:41:37;2.90;;;2.58;;
27495;SDS011;14929;51.336;9.416;2023-06-10T00:44:04;2.25;;;2.08;;
27495;SDS011;14929;51.336;9.416;2023-06-10T00:46:32;2.65;;;2.45;;
27495;SDS011;14929;51.336;9.416;2023-06-10T00:48:59;2.67;;;2.47;;
27495;SDS011;14929;51.336;9.416;2023-06-10T00:51:28;2.60;;;2.00;;
27495;SDS011;14929;51.336;9.416;2023-06-10T00:53:56;2.25;;;2.08;;
27495;SDS011;14929;51.336;9.416;2023-06-10T00:56:23;2.97;;;2.45;;
27495;SDS011;14929;51.336;9.416;2023-06-10T00:58:50;2.03;;;1.88;;
27495;SDS011;14929;51.336;9.416;2023-06-10T01:01:18;2.40;;;2.20;;
27495;SDS011;14929;51.336;9.416;2023-06-10T01:03:46;2.53;;;2.33;;
27495;SDS011;14929;51.336;9.416;2023-06-10T01:06:16;3.13;;;2.70;;
27495;SDS011;14929;51.336;9.416;2023-06-10T01:08:54;2.78;;;2.58;;
27495;SDS011;14929;51.336;9.416;2023-06-10T01:11:28;3.42;;;2.85;;
27495;SDS011;14929;51.336;9.416;2023-06-10T01:14:00;2.35;;;2.20;;
27495;SDS011;14929;51.336;9.416;2023-06-10T01:16:28;3.40;;;3.10;;
27495;SDS011;14929;51.336;9.416;2023-06-10T01:18:55;3.13;;;2.78;;
27495;SDS011;14929;51.336;9.416;2023-06-10T01:21:24;3.45;;;2.45;;
27495;SDS011;14929;51.336;9.416;2023-06-10T01:23:53;2.63;;;2.42;;
27495;SDS011;14929;51.336;9.416;2023-06-10T01:26:24;3.05;;;2.75;;
27495;SDS011;14929;51.336;9.416;2023-06-10T01:28:57;3.20;;;2.67;;
27495;SDS011;14929;51.336;9.416;2023-06-10T01:31:31;3.42;;;2.65;;
27495;SDS011;14929;51.336;9.416;2023-06-10T01:34:05;2.80;;;2.60;;
27495;SDS011;14929;51.336;9.416;2023-06-10T01:36:36;3.30;;;2.55;;
27495;SDS011;14929;51.336;9.416;2023-06-10T01:39:05;2.85;;;2.63;;
27495;SDS011;14929;51.336;9.416;2023-06-10T01:41:32;2.28;;;2.13;;
27495;SDS011;14929;51.336;9.416;2023-06-10T01:44:01;3.00;;;2.50;;
27495;SDS011;14929;51.336;9.416;2023-06-10T01:46:29;3.08;;;2.83;;
27495;SDS011;14929;51.336;9.416;2023-06-10T01:48:56;3.05;;;2.40;;
27495;SDS011;14929;51.336;9.416;2023-06-10T01:51:23;2.70;;;2.50;;
27495;SDS011;14929;51.336;9.416;2023-06-10T01:53:52;2.30;;;2.20;;
27495;SDS011;14929;51.336;9.416;2023-06-10T01:56:20;2.55;;;2.35;;
27495;SDS011;14929;51.336;9.416;2023-06-10T01:58:47;3.00;;;2.72;;
27495;SDS011;14929;51.336;9.416;2023-06-10T02:01:15;2.53;;;2.30;;
27495;SDS011;14929;51.336;9.416;2023-06-10T02:03:42;2.25;;;2.05;;
27495;SDS011;14929;51.336;9.416;2023-06-10T02:06:09;3.17;;;2.88;;
27495;SDS011;14929;51.336;9.416;2023-06-10T02:08:37;2.88;;;2.30;;
27495;SDS011;14929;51.336;9.416;2023-06-10T02:11:05;2.70;;;2.50;;
27495;SDS011;14929;51.336;9.416;2023-06-10T02:13:33;2.67;;;2.47;;
27495;SDS011;14929;51.336;9.416;2023-06-10T02:16:00;2.67;;;2.47;;
27495;SDS011;14929;51.336;9.416;2023-06-10T02:18:28;2.58;;;2.38;;
27495;SDS011;14929;51.336;9.416;2023-06-10T02:20:55;2.70;;;2.50;;
27495;SDS011;14929;51.336;9.416;2023-06-10T02:23:23;2.25;;;2.10;;
27495;SDS011;14929;51.336;9.416;2023-06-10T02:25:50;2.53;;;2.33;;
27495;SDS011;14929;51.336;9.416;2023-06-10T02:28:19;4.78;;;3.20;;
27495;SDS011;14929;51.336;9.416;2023-06-10T02:30:46;2.75;;;2.55;;
27495;SDS011;14929;51.336;9.416;2023-06-10T02:33:14;3.38;;;2.38;;
27495;SDS011;14929;51.336;9.416;2023-06-10T02:35:42;2.97;;;2.78;;
27495;SDS011;14929;51.336;9.416;2023-06-10T02:38:10;2.97;;;2.65;;
27495;SDS011;14929;51.336;9.416;2023-06-10T02:40:37;2.97;;;2.67;;
27495;SDS011;14929;51.336;9.416;2023-06-10T02:43:05;3.10;;;2.88;;
27495;SDS011;14929;51.336;9.416;2023-06-10T02:45:33;3.17;;;2.88;;
27495;SDS011;14929;51.336;9.416;2023-06-10T02:48:01;2.88;;;2.67;;
27495;SDS011;14929;51.336;9.416;2023-06-10T02:50:28;2.90;;;2.70;;
27495;SDS011;14929;51.336;9.416;2023-06-10T02:52:56;2.72;;;2.53;;
27495;SDS011;14929;51.336;9.416;2023-06-10T02:55:23;2.10;;;1.92;;
27495;SDS011;14929;51.336;9.416;2023-06-10T02:57:51;2.15;;;1.92;;
27495;SDS011;14929;51.336;9.416;2023-06-10T03:00:19;2.35;;;2.17;;
27495;SDS011;14929;51.336;9.416;2023-06-10T03:02:49;2.75;;;2.55;;
27495;SDS011;14929;51.336;9.416;2023-06-10T03:05:16;2.50;;;2.30;;
27495;SDS011;14929;51.336;9.416;2023-06-10T03:07:44;2.40;;;2.20;;
27495;SDS011;14929;51.336;9.416;2023-06-10T03:10:12;3.28;;;2.60;;
27495;SDS011;14929;51.336;9.416;2023-06-10T03:12:40;3.20;;;2.90;;
27495;SDS011;14929;51.336;9.416;2023-06-10T03:15:07;3.08;;;2.72;;
27495;SDS011;14929;51.336;9.416;2023-06-10T03:17:35;3.63;;;3.03;;
27495;SDS011;14929;51.336;9.416;2023-06-10T03:20:04;2.58;;;2.38;;
27495;SDS011;14929;51.336;9.416;2023-06-10T03:22:35;3.20;;;2.90;;
27495;SDS011;14929;51.336;9.416;2023-06-10T03:25:03;2.25;;;2.05;;
27495;SDS011;14929;51.336;9.416;2023-06-10T03:27:33;2.53;;;2.33;;
27495;SDS011;14929;51.336;9.416;2023-06-10T03:30:00;4.93;;;2.70;;
27495;SDS011;14929;51.336;9.416;2023-06-10T03:32:28;2.63;;;2.40;;
27495;SDS011;14929;51.336;9.416;2023-06-10T03:34:56;3.92;;;2.72;;
27495;SDS011;14929;51.336;9.416;2023-06-10T03:37:24;2.90;;;2.25;;
27495;SDS011;14929;51.336;9.416;2023-06-10T03:39:52;2.95;;;2.75;;
27495;SDS011;14929;51.336;9.416;2023-06-10T03:42:19;3.17;;;2.47;;
27495;SDS011;14929;51.336;9.416;2023-06-10T03:44:47;2.58;;;2.38;;
27495;SDS011;14929;51.336;9.416;2023-06-10T03:47:14;4.35;;;2.85;;
27495;SDS011;14929;51.336;9.416;2023-06-10T03:49:42;2.60;;;2.40;;
27495;SDS011;14929;51.336;9.416;2023-06-10T03:52:09;4.47;;;3.22;;
27495;SDS011;14929;51.336;9.416;2023-06-10T03:54:38;3.42;;;2.25;;
27495;SDS011;14929;51.336;9.416;2023-06-10T03:57:05;2.65;;;2.45;;
27495;SDS011;14929;51.336;9.416;2023-06-10T03:59:33;3.15;;;2.35;;
27495;SDS011;14929;51.336;9.416;2023-06-10T04:02:00;2.22;;;1.90;;
27495;SDS011;14929;51.336;9.416;2023-06-10T04:04:29;4.53;;;2.90;;
27495;SDS011;14929;51.336;9.416;2023-06-10T04:06:57;2.47;;;2.28;;
27495;SDS011;14929;51.336;9.416;2023-06-10T04:09:24;3.85;;;2.55;;
27495;SDS011;14929;51.336;9.416;2023-06-10T04:11:53;2.55;;;2.35;;
27495;SDS011;14929;51.336;9.416;2023-06-10T04:14:20;4.43;;;2.72;;
27495;SDS011;14929;51.336;9.416;2023-06-10T04:16:49;2.58;;;2.38;;
27495;SDS011;14929;51.336;9.416;2023-06-10T04:19:16;3.33;;;2.60;;
27495;SDS011;14929;51.336;9.416;2023-06-10T04:21:45;2.47;;;2.25;;
27495;SDS011;14929;51.336;9.416;2023-06-10T04:24:12;2.03;;;1.92;;
27495;SDS011;14929;51.336;9.416;2023-06-10T04:26:40;2.00;;;1.90;;
27495;SDS011;14929;51.336;9.416;2023-06-10T04:29:08;2.80;;;2.47;;
27495;SDS011;14929;51.336;9.416;2023-06-10T04:31:36;2.67;;;2.47;;
27495;SDS011;14929;51.336;9.416;2023-06-10T04:34:03;2.60;;;2.40;;
27495;SDS011;14929;51.336;9.416;2023-06-10T04:36:32;2.63;;;2.42;;
27495;SDS011;14929;51.336;9.416;2023-06-10T04:39:00;2.95;;;2.65;;
27495;SDS011;14929;51.336;9.416;2023-06-10T04:41:28;2.67;;;2.47;;
27495;SDS011;14929;51.336;9.416;2023-06-10T04:43:55;3.42;;;2.45;;
27495;SDS011;14929;51.336;9.416;2023-06-10T04:46:24;2.92;;;2.63;;
27495;SDS011;14929;51.336;9.416;2023-06-10T04:48:51;2.58;;;2.38;;
27495;SDS011;14929;51.336;9.416;2023-06-10T04:51:19;5.00;;;3.65;;
27495;SDS011;14929;51.336;9.416;2023-06-10T04:53:47;3.30;;;3.00;;
27495;SDS011;14929;51.336;9.416;2023-06-10T04:56:15;6.03;;;4.68;;
27495;SDS011;14929;51.336;9.416;2023-06-10T04:58:42;3.25;;;2.95;;
27495;SDS011;14929;51.336;9.416;2023-06-10T05:01:09;3.47;;;2.72;;
27495;SDS011;14929;51.336;9.416;2023-06-10T05:03:38;3.17;;;2.88;;
27495;SDS011;14929;51.336;9.416;2023-06-10T05:06:07;3.15;;;2.80;;
27495;SDS011;14929;51.336;9.416;2023-06-10T05:08:35;3.38;;;2.92;;
27495;SDS011;14929;51.336;9.416;2023-06-10T05:11:02;2.85;;;2.65;;
27495;SDS011;14929;51.336;9.416;2023-06-10T05:13:29;3.90;;;2.65;;
27495;SDS011;14929;51.336;9.416;2023-06-10T05:15:57;3.33;;;2.92;;
27495;SDS011;14929;51.336;9.416;2023-06-10T05:18:25;3.28;;;2.97;;
27495;SDS011;14929;51.336;9.416;2023-06-10T05:20:54;3.67;;;2.47;;
27495;SDS011;14929;51.336;9.416;2023-06-10T05:23:21;3.00;;;2.70;;
27495;SDS011;14929;51.336;9.416;2023-06-10T05:25:48;2.80;;;2.60;;
27495;SDS011;14929;51.336;9.416;2023-06-10T05:28:16;2.22;;;2.13;;
27495;SDS011;14929;51.336;9.416;2023-06-10T05:30:44;2.30;;;2.20;;
27495;SDS011;14929;51.336;9.416;2023-06-10T05:33:12;2.90;;;2.42;;
27495;SDS011;14929;51.336;9.416;2023-06-10T05:35:39;2.95;;;2.70;;
27495;SDS011;14929;51.336;9.416;2023-06-10T05:38:08;3.42;;;2.40;;
27495;SDS011;14929;51.336;9.416;2023-06-10T05:40:36;2.35;;;2.05;;
27495;SDS011;14929;51.336;9.416;2023-06-10T05:43:03;2.15;;;1.92;;
27495;SDS011;14929;51.336;9.416;2023-06-10T05:45:30;2.53;;;2.22;;
27495;SDS011;14929;51.336;9.416;2023-06-10T05:47:58;2.35;;;2.15;;
27495;SDS011;14929;51.336;9.416;2023-06-10T05:50:26;1.90;;;1.80;;
27495;SDS011;14929;51.336;9.416;2023-06-10T05:52:53;2.55;;;2.35;;
27495;SDS011;14929;51.336;9.416;2023-06-10T05:55:22;2.75;;;2.28;;
27495;SDS011;14929;51.336;9.416;2023-06-10T05:57:58;2.70;;;2.50;;
27495;SDS011;14929;51.336;9.416;2023-06-10T06:00:26;2.30;;;2.20;;
27495;SDS011;14929;51.336;9.416;2023-06-10T06:02:53;2.63;;;2.42;;
27495;SDS011;14929;51.336;9.416;2023-06-10T06:05:22;2.97;;;2.78;;
27495;SDS011;14929;51.336;9.416;2023-06-10T06:07:49;3.00;;;2.65;;
27495;SDS011;14929;51.336;9.416;2023-06-10T06:10:17;2.78;;;2.35;;
27495;SDS011;14929;51.336;9.416;2023-06-10T06:12:46;2.78;;;2.45;;
27495;SDS011;14929;51.336;9.416;2023-06-10T06:15:14;3.65;;;2.83;;
27495;SDS011;14929;51.336;9.416;2023-06-10T06:17:41;2.70;;;2.50;;
27495;SDS011;14929;51.336;9.416;2023-06-10T06:20:09;2.60;;;2.40;;
27495;SDS011;14929;51.336;9.416;2023-06-10T06:22:37;3.22;;;2.28;;
27495;SDS011;14929;51.336;9.416;2023-06-10T06:25:04;3.60;;;2.28;;
27495;SDS011;14929;51.336;9.416;2023-06-10T06:27:32;3.15;;;2.47;;
27495;SDS011;14929;51.336;9.416;2023-06-10T06:30:01;2.25;;;2.13;;
27495;SDS011;14929;51.336;9.416;2023-06-10T06:32:30;2.28;;;2.10;;
27495;SDS011;14929;51.336;9.416;2023-06-10T06:34:57;4.13;;;2.45;;
27495;SDS011;14929;51.336;9.416;2023-06-10T06:37:25;2.92;;;2.72;;
27495;SDS011;14929;51.336;9.416;2023-06-10T06:39:53;3.08;;;2.88;;
27495;SDS011;14929;51.336;9.416;2023-06-10T06:42:21;2.70;;;2.50;;
27495;SDS011;14929;51.336;9.416;2023-06-10T06:44:48;2.42;;;2.22;;
27495;SDS011;14929;51.336;9.416;2023-06-10T06:47:17;3.38;;;2.60;;
27495;SDS011;14929;51.336;9.416;2023-06-10T06:49:45;4.18;;;2.75;;
27495;SDS011;14929;51.336;9.416;2023-06-10T06:52:12;3.13;;;2.30;;
27495;SDS011;14929;51.336;9.416;2023-06-10T06:54:40;2.47;;;2.28;;
27495;SDS011;14929;51.336;9.416;2023-06-10T06:57:08;3.40;;;3.00;;
27495;SDS011;14929;51.336;9.416;2023-06-10T06:59:35;2.47;;;2.28;;
27495;SDS011;14929;51.336;9.416;2023-06-10T07:02:03;2.40;;;2.20;;
27495;SDS011;14929;51.336;9.416;2023-06-10T07:04:32;3.03;;;2.70;;
27495;SDS011;14929;51.336;9.416;2023-06-10T07:07:00;3.08;;;2.78;;
27495;SDS011;14929;51.336;9.416;2023-06-10T07:09:27;2.55;;;2.35;;
27495;SDS011;14929;51.336;9.416;2023-06-10T07:11:55;3.25;;;2.92;;
27495;SDS011;14929;51.336;9.416;2023-06-10T07:14:22;2.83;;;2.17;;
27495;SDS011;14929;51.336;9.416;2023-06-10T07:16:50;2.90;;;2.70;;
27495;SDS011;14929;51.336;9.416;2023-06-10T07:19:17;3.25;;;3.05;;
27495;SDS011;14929;51.336;9.416;2023-06-10T07:21:46;2.70;;;2.50;;
27495;SDS011;14929;51.336;9.416;2023-06-10T07:24:14;2.47;;;2.28;;
27495;SDS011;14929;51.336;9.416;2023-06-10T07:26:42;3.38;;;3.17;;
27495;SDS011;14929;51.336;9.416;2023-06-10T07:29:09;2.30;;;2.10;;
27495;SDS011;14929;51.336;9.416;2023-06-10T07:31:37;2.78;;;2.58;;
27495;SDS011;14929;51.336;9.416;2023-06-10T07:34:07;2.83;;;2.63;;
27495;SDS011;14929;51.336;9.416;2023-06-10T07:36:34;2.63;;;2.38;;
27495;SDS011;14929;51.336;9.416;2023-06-10T07:39:04;2.88;;;2.67;;
27495;SDS011;14929;51.336;9.416;2023-06-10T07:41:32;5.47;;;3.28;;
27495;SDS011;14929;51.336;9.416;2023-06-10T07:44:00;2.50;;;2.30;;
27495;SDS011;14929;51.336;9.416;2023-06-10T07:46:28;2.53;;;2.33;;
27495;SDS011;14929;51.336;9.416;2023-06-10T07:48:55;2.97;;;2.67;;
27495;SDS011;14929;51.336;9.416;2023-06-10T07:51:23;2.97;;;2.67;;
27495;SDS011;14929;51.336;9.416;2023-06-10T07:53:50;3.30;;;3.00;;
27495;SDS011;14929;51.336;9.416;2023-06-10T07:56:19;2.63;;;2.42;;
27495;SDS011;14929;51.336;9.416;2023-06-10T07:58:46;3.25;;;2.90;;
27495;SDS011;14929;51.336;9.416;2023-06-10T08:01:14;3.53;;;2.80;;
27495;SDS011;14929;51.336;9.416;2023-06-10T08:03:42;3.17;;;2.97;;
27495;SDS011;14929;51.336;9.416;2023-06-10T08:06:09;3.25;;;2.72;;
27495;SDS011;14929;51.336;9.416;2023-06-10T08:08:37;2.72;;;2.53;;
27495;SDS011;14929;51.336;9.416;2023-06-10T08:11:07;2.38;;;2.10;;
27495;SDS011;14929;51.336;9.416;2023-06-10T08:13:35;2.53;;;2.33;;
27495;SDS011;14929;51.336;9.416;2023-06-10T08:16:03;3.00;;;2.80;;
27495;SDS011;14929;51.336;9.416;2023-06-10T08:18:31;3.03;;;2.72;;
27495;SDS011;14929;51.336;9.416;2023-06-10T08:20:58;2.70;;;2.50;;
27495;SDS011;14929;51.336;9.416;2023-06-10T08:23:26;3.58;;;2.70;;
27495;SDS011;14929;51.336;9.416;2023-06-10T08:25:53;2.83;;;2.63;;
27495;SDS011;14929;51.336;9.416;2023-06-10T08:28:21;3.63;;;2.42;;
27495;SDS011;14929;51.336;9.416;2023-06-10T08:30:49;4.32;;;3.92;;
27495;SDS011;14929;51.336;9.416;2023-06-10T08:33:17;4.05;;;3.65;;
27495;SDS011;14929;51.336;9.416;2023-06-10T08:35:45;2.83;;;2.63;;
27495;SDS011;14929;51.336;9.416;2023-06-10T08:38:12;2.65;;;2.45;;
27495;SDS011;14929;51.336;9.416;2023-06-10T08:40:41;3.90;;;3.60;;
27495;SDS011;14929;51.336;9.416;2023-06-10T08:43:10;3.45;;;3.15;;
27495;SDS011;14929;51.336;9.416;2023-06-10T08:45:59;5.20;;;3.28;;
27495;SDS011;14929;51.336;9.416;2023-06-10T08:48:28;3.42;;;3.10;;
27495;SDS011;14929;51.336;9.416;2023-06-10T08:50:56;4.10;;;3.80;;
27495;SDS011;14929;51.336;9.416;2023-06-10T08:53:24;3.75;;;3.45;;
27495;SDS011;14929;51.336;9.416;2023-06-10T08:55:53;2.72;;;2.53;;
27495;SDS011;14929;51.336;9.416;2023-06-10T08:58:21;3.08;;;2.88;;
27495;SDS011;14929;51.336;9.416;2023-06-10T09:00:49;2.95;;;2.75;;
27495;SDS011;14929;51.336;9.416;2023-06-10T09:03:18;2.70;;;2.50;;
27495;SDS011;14929;51.336;9.416;2023-06-10T09:05:46;3.97;;;2.90;;
27495;SDS011;14929;51.336;9.416;2023-06-10T09:08:14;4.65;;;4.22;;
27495;SDS011;14929;51.336;9.416;2023-06-10T09:10:42;4.32;;;3.92;;
27495;SDS011;14929;51.336;9.416;2023-06-10T09:13:10;3.72;;;3.42;;
27495;SDS011;14929;51.336;9.416;2023-06-10T09:15:40;3.50;;;3.30;;
27495;SDS011;14929;51.336;9.416;2023-06-10T09:18:08;4.10;;;3.45;;
27495;SDS011;14929;51.336;9.416;2023-06-10T09:20:36;4.13;;;3.72;;
27495;SDS011;14929;51.336;9.416;2023-06-10T09:23:07;11.00;;;3.90;;
27495;SDS011;14929;51.336;9.416;2023-06-10T09:25:35;3.70;;;3.40;;
27495;SDS011;14929;51.336;9.416;2023-06-10T09:28:04;3.15;;;2.90;;
27495;SDS011;14929;51.336;9.416;2023-06-10T09:30:38;3.35;;;3.08;;
27495;SDS011;14929;51.336;9.416;2023-06-10T09:33:09;3.60;;;3.28;;
27495;SDS011;14929;51.336;9.416;2023-06-10T09:35:45;3.53;;;3.22;;
27495;SDS011;14929;51.336;9.416;2023-06-10T09:38:13;5.45;;;4.43;;
27495;SDS011;14929;51.336;9.416;2023-06-10T09:40:48;4.50;;;4.10;;
27495;SDS011;14929;51.336;9.416;2023-06-10T09:43:17;3.53;;;3.22;;
27495;SDS011;14929;51.336;9.416;2023-06-10T09:45:47;3.47;;;3.28;;
27495;SDS011;14929;51.336;9.416;2023-06-10T09:48:15;3.05;;;2.85;;
27495;SDS011;14929;51.336;9.416;2023-06-10T09:50:44;3.60;;;3.30;;
27495;SDS011;14929;51.336;9.416;2023-06-10T09:53:12;4.25;;;3.83;;
27495;SDS011;14929;51.336;9.416;2023-06-10T09:55:39;8.77;;;4.10;;
27495;SDS011;14929;51.336;9.416;2023-06-10T09:58:08;3.47;;;3.10;;
27495;SDS011;14929;51.336;9.416;2023-06-10T10:00:35;3.40;;;3.10;;
27495;SDS011;14929;51.336;9.416;2023-06-10T10:03:03;3.50;;;3.25;;
27495;SDS011;14929;51.336;9.416;2023-06-10T10:05:31;3.42;;;3.22;;
27495;SDS011;14929;51.336;9.416;2023-06-10T10:08:00;3.83;;;3.53;;
27495;SDS011;14929;51.336;9.416;2023-06-10T10:10:28;3.40;;;3.20;;
27495;SDS011;14929;51.336;9.416;2023-06-10T10:12:55;3.85;;;3.55;;
27495;SDS011;14929;51.336;9.416;2023-06-10T10:15:23;3.10;;;2.90;;
27495;SDS011;14929;51.336;9.416;2023-06-10T10:17:56;4.38;;;3.97;;
27495;SDS011;14929;51.336;9.416;2023-06-10T10:20:29;3.70;;;3.38;;
27495;SDS011;14929;51.336;9.416;2023-06-10T10:23:02;3.17;;;2.97;;
27495;SDS011;14929;51.336;9.416;2023-06-10T10:25:32;3.72;;;3.47;;
27495;SDS011;14929;51.336;9.416;2023-06-10T10:28:05;3.80;;;3.58;;
27495;SDS011;14929;51.336;9.416;2023-06-10T10:30:37;5.80;;;4.35;;
27495;SDS011;14929;51.336;9.416;2023-06-10T10:33:09;4.43;;;4.03;;
27495;SDS011;14929;51.336;9.416;2023-06-10T10:35:42;4.40;;;3.65;;
27495;SDS011;14929;51.336;9.416;2023-06-10T10:38:12;4.38;;;3.97;;
27495;SDS011;14929;51.336;9.416;2023-06-10T10:40:39;3.70;;;3.50;;
27495;SDS011;14929;51.336;9.416;2023-06-10T10:43:08;4.40;;;4.10;;
27495;SDS011;14929;51.336;9.416;2023-06-10T10:45:36;3.70;;;3.40;;
27495;SDS011;14929;51.336;9.416;2023-06-10T10:48:05;3.55;;;3.25;;
27495;SDS011;14929;51.336;9.416;2023-06-10T10:50:36;3.42;;;2.80;;
27495;SDS011;14929;51.336;9.416;2023-06-10T10:53:05;3.55;;;3.28;;
27495;SDS011;14929;51.336;9.416;2023-06-10T10:55:34;4.18;;;3.78;;
27495;SDS011;14929;51.336;9.416;2023-06-10T10:58:03;4.65;;;3.70;;
27495;SDS011;14929;51.336;9.416;2023-06-10T11:00:35;3.00;;;2.80;;
27495;SDS011;14929;51.336;9.416;2023-06-10T11:03:06;3.75;;;3.45;;
27495;SDS011;14929;51.336;9.416;2023-06-10T11:05:38;3.75;;;3.45;;
27495;SDS011;14929;51.336;9.416;2023-06-10T11:08:09;3.65;;;3.33;;
27495;SDS011;14929;51.336;9.416;2023-06-10T11:10:39;5.95;;;4.57;;
27495;SDS011;14929;51.336;9.416;2023-06-10T11:13:08;4.07;;;3.78;;
27495;SDS011;14929;51.336;9.416;2023-06-10T11:15:39;3.58;;;3.38;;
27495;SDS011;14929;51.336;9.416;2023-06-10T11:18:18;3.80;;;3.60;;
27495;SDS011;14929;51.336;9.416;2023-06-10T11:20:52;3.97;;;3.67;;
27495;SDS011;14929;51.336;9.416;2023-06-10T11:23:38;3.90;;;3.63;;
27495;SDS011;14929;51.336;9.416;2023-06-10T11:26:18;3.95;;;3.55;;
27495;SDS011;14929;51.336;9.416;2023-06-10T11:29:01;4.00;;;3.70;;
27495;SDS011;14929;51.336;9.416;2023-06-10T11:31:38;5.03;;;2.83;;
27495;SDS011;14929;51.336;9.416;2023-06-10T11:34:11;4.28;;;3.80;;
27495;SDS011;14929;51.336;9.416;2023-06-10T11:36:40;3.45;;;3.25;;
27495;SDS011;14929;51.336;9.416;2023-06-10T11:39:10;4.68;;;4.35;;
27495;SDS011;14929;51.336;9.416;2023-06-10T11:41:39;3.38;;;3.17;;
27495;SDS011;14929;51.336;9.416;2023-06-10T11:44:08;4.85;;;3.63;;
27495;SDS011;14929;51.336;9.416;2023-06-10T11:46:36;4.40;;;4.00;;
27495;SDS011;14929;51.336;9.416;2023-06-10T11:49:04;3.70;;;3.50;;
27495;SDS011;14929;51.336;9.416;2023-06-10T11:51:33;4.82;;;3.70;;
27495;SDS011;14929;51.336;9.416;2023-06-10T11:54:02;4.43;;;4.13;;
27495;SDS011;14929;51.336;9.416;2023-06-10T11:56:30;5.18;;;4.38;;
27495;SDS011;14929;51.336;9.416;2023-06-10T11:59:00;5.10;;;4.60;;
27495;SDS011;14929;51.336;9.416;2023-06-10T12:01:31;4.22;;;3.97;;
27495;SDS011;14929;51.336;9.416;2023-06-10T12:04:01;4.90;;;4.60;;
27495;SDS011;14929;51.336;9.416;2023-06-10T12:06:40;5.00;;;4.60;;
27495;SDS011;14929;51.336;9.416;2023-06-10T12:09:13;3.53;;;3.33;;
27495;SDS011;14929;51.336;9.416;2023-06-10T12:11:42;4.53;;;3.67;;
27495;SDS011;14929;51.336;9.416;2023-06-10T12:14:11;3.90;;;3.55;;
27495;SDS011;14929;51.336;9.416;2023-06-10T12:16:39;4.28;;;3.97;;
27495;SDS011;14929;51.336;9.416;2023-06-10T12:19:08;4.50;;;4.20;;
27495;SDS011;14929;51.336;9.416;2023-06-10T12:21:36;4.15;;;3.95;;
27495;SDS011;14929;51.336;9.416;2023-06-10T12:24:05;4.03;;;3.70;;
27495;SDS011;14929;51.336;9.416;2023-06-10T12:26:34;4.80;;;4.30;;
27495;SDS011;14929;51.336;9.416;2023-06-10T12:29:13;4.78;;;4.32;;
27495;SDS011;14929;51.336;9.416;2023-06-10T12:31:53;3.95;;;3.65;;
27495;SDS011;14929;51.336;9.416;2023-06-10T12:34:34;3.50;;;3.20;;
27495;SDS011;14929;51.336;9.416;2023-06-10T12:37:05;3.90;;;3.67;;
27495;SDS011;14929;51.336;9.416;2023-06-10T12:39:38;3.78;;;3.47;;
27495;SDS011;14929;51.336;9.416;2023-06-10T12:42:06;4.72;;;4.32;;
27495;SDS011;14929;51.336;9.416;2023-06-10T12:44:38;4.13;;;3.72;;
27495;SDS011;14929;51.336;9.416;2023-06-10T12:47:07;4.32;;;4.03;;
27495;SDS011;14929;51.336;9.416;2023-06-10T12:49:37;4.68;;;4.28;;
27495;SDS011;14929;51.336;9.416;2023-06-10T12:52:05;4.20;;;3.90;;
27495;SDS011;14929;51.336;9.416;2023-06-10T12:54:33;3.97;;;3.65;;
27495;SDS011;14929;51.336;9.416;2023-06-10T12:57:01;3.65;;;3.35;;
27495;SDS011;14929;51.336;9.416;2023-06-10T12:59:29;3.90;;;3.60;;
27495;SDS011;14929;51.336;9.416;2023-06-10T13:01:59;4.00;;;3.70;;
27495;SDS011;14929;51.336;9.416;2023-06-10T13:04:26;4.28;;;3.97;;
27495;SDS011;14929;51.336;9.416;2023-06-10T13:06:54;5.32;;;3.95;;
27495;SDS011;14929;51.336;9.416;2023-06-10T13:09:21;4.60;;;4.30;;
27495;SDS011;14929;51.336;9.416;2023-06-10T13:11:49;4.05;;;3.75;;
27495;SDS011;14929;51.336;9.416;2023-06-10T13:14:17;3.95;;;3.65;;
27495;SDS011;14929;51.336;9.416;2023-06-10T13:16:45;4.30;;;3.88;;
27495;SDS011;14929;51.336;9.416;2023-06-10T13:19:13;3.45;;;3.17;;
27495;SDS011;14929;51.336;9.416;2023-06-10T13:21:41;4.45;;;4.15;;
27495;SDS011;14929;51.336;9.416;2023-06-10T13:24:08;3.88;;;3.53;;
27495;SDS011;14929;51.336;9.416;2023-06-10T13:26:36;4.00;;;3.60;;
27495;SDS011;14929;51.336;9.416;2023-06-10T13:29:03;3.60;;;3.30;;
27495;SDS011;14929;51.336;9.416;2023-06-10T13:31:32;4.40;;;3.70;;
27495;SDS011;14929;51.336;9.416;2023-06-10T13:34:00;5.60;;;4.22;;
27495;SDS011;14929;51.336;9.416;2023-06-10T13:36:29;3.67;;;3.42;;
27495;SDS011;14929;51.336;9.416;2023-06-10T13:38:56;4.20;;;3.33;;
27495;SDS011;14929;51.336;9.416;2023-06-10T13:41:23;4.05;;;3.75;;
27495;SDS011;14929;51.336;9.416;2023-06-10T13:43:52;3.05;;;2.85;;
27495;SDS011;14929;51.336;9.416;2023-06-10T13:46:20;4.03;;;3.25;;
27495;SDS011;14929;51.336;9.416;2023-06-10T13:48:48;7.82;;;3.35;;
27495;SDS011;14929;51.336;9.416;2023-06-10T13:51:15;2.97;;;2.78;;
27495;SDS011;14929;51.336;9.416;2023-06-10T13:53:44;3.55;;;3.25;;
27495;SDS011;14929;51.336;9.416;2023-06-10T13:56:11;3.08;;;2.88;;
27495;SDS011;14929;51.336;9.416;2023-06-10T13:58:39;3.10;;;2.80;;
27495;SDS011;14929;51.336;9.416;2023-06-10T14:01:08;5.10;;;3.83;;
27495;SDS011;14929;51.336;9.416;2023-06-10T14:03:35;4.13;;;3.83;;
27495;SDS011;14929;51.336;9.416;2023-06-10T14:06:03;4.10;;;3.80;;
27495;SDS011;14929;51.336;9.416;2023-06-10T14:08:30;4.47;;;4.07;;
27495;SDS011;14929;51.336;9.416;2023-06-10T14:10:59;4.05;;;3.75;;
27495;SDS011;14929;51.336;9.416;2023-06-10T14:13:26;3.92;;;3.72;;
27495;SDS011;14929;51.336;9.416;2023-06-10T14:15:54;3.50;;;3.30;;
27495;SDS011;14929;51.336;9.416;2023-06-10T14:18:22;4.20;;;3.90;;
27495;SDS011;14929;51.336;9.416;2023-06-10T14:20:50;7.38;;;3.95;;
27495;SDS011;14929;51.336;9.416;2023-06-10T14:23:17;3.75;;;3.45;;
27495;SDS011;14929;51.336;9.416;2023-06-10T14:25:45;4.13;;;3.72;;
27495;SDS011;14929;51.336;9.416;2023-06-10T14:28:13;3.88;;;3.60;;
27495;SDS011;14929;51.336;9.416;2023-06-10T14:30:41;4.13;;;3.83;;
27495;SDS011;14929;51.336;9.416;2023-06-10T14:33:08;4.22;;;3.92;;
27495;SDS011;14929;51.336;9.416;2023-06-10T14:35:36;4.65;;;3.33;;
27495;SDS011;14929;51.336;9.416;2023-06-10T14:38:03;10.25;;;3.53;;
27495;SDS011;14929;51.336;9.416;2023-06-10T14:40:31;3.72;;;3.53;;
27495;SDS011;14929;51.336;9.416;2023-06-10T14:42:58;3.67;;;3.20;;
27495;SDS011;14929;51.336;9.416;2023-06-10T14:45:27;4.35;;;4.05;;
27495;SDS011;14929;51.336;9.416;2023-06-10T14:47:55;3.78;;;3.47;;
27495;SDS011;14929;51.336;9.416;2023-06-10T14:50:22;3.70;;;3.40;;
27495;SDS011;14929;51.336;9.416;2023-06-10T14:52:50;4.03;;;3.72;;
27495;SDS011;14929;51.336;9.416;2023-06-10T14:55:17;3.95;;;3.65;;
27495;SDS011;14929;51.336;9.416;2023-06-10T14:57:45;3.90;;;3.58;;